Puchberg, Austria
Current Conditions -  °F | °C
As of 11:20 PM on Friday 19 Dec 2014 (Local Time) from LOWW Reporting Station
Broken Clouds Broken Clouds  
Wind Chill: 57°   Ceiling: 13000
Heat Index: 57°   Visibility: 6mi
Dew Point: 41°   Wind: 18mph
Humidity: 55%   Direction: 280°W
Pressure: 29.97"   Gusts: NA
Location:  47.78°N, 15.92°E
Report Text: LOWW 192120Z 28016KT 9999 FEW050 BKN130 14/05 Q1015 NOSIG
Loading
Personal Weather Stations






























Interactive Weather Map New forecast layout! Learn more

10-Day Weather Forecast

Advertisements
Track Severe Weather on mobile